createdAt,value
2018-02-19T00:00:46.212Z,1.21
2018-02-19T00:03:14.567Z,1.18
2018-02-19T00:05:43.001Z,1.29
2018-02-19T00:08:11.285Z,1.20
2018-02-19T00:10:40.523Z,1.12
2018-02-19T00:13:08.813Z,0.98
2018-02-19T00:15:37.132Z,0.99
2018-02-19T00:18:05.417Z,1.01
2018-02-19T00:20:33.753Z,0.94
2018-02-19T00:23:05.948Z,0.94
2018-02-19T00:25:34.381Z,0.80
2018-02-19T00:28:05.561Z,1.01
2018-02-19T00:30:35.620Z,0.89
2018-02-19T00:33:06.353Z,0.74
2018-02-19T00:35:36.454Z,0.64
2018-02-19T00:38:08.582Z,0.49
2018-02-19T00:40:37.973Z,0.41
2018-02-19T00:43:08.556Z,0.32
2018-02-19T00:45:37.681Z,0.28
2018-02-19T00:48:08.873Z,0.24
2018-02-19T00:50:39.774Z,0.24
2018-02-19T00:53:09.773Z,0.19
2018-02-19T00:55:38.403Z,0.10
2018-02-19T00:58:06.812Z,0.06
2018-02-19T01:00:36.463Z,0.11
2018-02-19T01:03:06.871Z,-0.02
2018-02-19T01:05:39.705Z,-0.05
2018-02-19T01:08:08.194Z,0.04
2018-02-19T01:10:37.752Z,0.07
2018-02-19T01:13:07.120Z,0.04
2018-02-19T01:15:35.405Z,0.04
2018-02-19T01:18:04.429Z,0.03
2018-02-19T01:20:34.067Z,-0.02
2018-02-19T01:23:08.377Z,-0.02
2018-02-19T01:25:38.636Z,-0.06
2018-02-19T01:28:07.250Z,-0.03
2018-02-19T01:30:39.002Z,-0.10
2018-02-19T01:33:07.463Z,0.06
2018-02-19T01:35:37.933Z,0.01
2018-02-19T01:38:06.583Z,-0.10
2018-02-19T01:40:36.483Z,-0.12
2018-02-19T01:43:07.216Z,0.04
2018-02-19T01:45:39.353Z,-0.14
2018-02-19T01:48:09.164Z,-0.09
2018-02-19T01:50:39.209Z,-0.11
2018-02-19T01:53:07.538Z,0.00
2018-02-19T01:55:42.012Z,-0.05
2018-02-19T01:58:11.185Z,0.02
2018-02-19T02:00:42.177Z,0.08
2018-02-19T02:03:10.745Z,0.06
2018-02-19T02:05:40.589Z,-0.06
2018-02-19T02:08:10.716Z,0.02
2018-02-19T02:10:40.602Z,0.01
2018-02-19T02:13:09.035Z,0.08
2018-02-19T02:15:37.404Z,0.03
2018-02-19T02:18:07.616Z,0.06
2018-02-19T02:20:37.170Z,-0.01
2018-02-19T02:23:06.729Z,-0.03
2018-02-19T02:25:36.031Z,0.02
2018-02-19T02:28:04.314Z,0.07
2018-02-19T02:30:32.617Z,0.00
2018-02-19T02:33:05.221Z,0.01
2018-02-19T02:35:33.514Z,0.01
2018-02-19T02:38:05.985Z,0.08
2018-02-19T02:40:34.262Z,0.04
2018-02-19T02:43:04.504Z,0.05
2018-02-19T02:45:32.812Z,-0.01
2018-02-19T02:48:04.460Z,0.07
2018-02-19T02:50:33.930Z,0.04
2018-02-19T02:53:05.947Z,0.01
2018-02-19T02:55:34.378Z,0.06
2018-02-19T02:58:06.443Z,0.01
2018-02-19T03:00:36.909Z,0.01
2018-02-19T03:03:05.313Z,-0.01
2018-02-19T03:05:35.282Z,-0.15
2018-02-19T03:08:04.161Z,-0.05
2018-02-19T03:10:33.019Z,-0.07
2018-02-19T03:13:06.274Z,-0.03
2018-02-19T03:15:36.839Z,0.02
2018-02-19T03:18:06.616Z,0.01
2018-02-19T03:20:36.528Z,0.06
2018-02-19T03:23:06.499Z,0.06
2018-02-19T03:25:36.899Z,0.02
2018-02-19T03:28:07.035Z,0.09
2018-02-19T03:30:37.610Z,0.14
2018-02-19T03:33:07.543Z,-0.06
2018-02-19T03:35:38.896Z,0.25
2018-02-19T03:38:09.365Z,0.10
2018-02-19T03:40:39.443Z,-0.02
2018-02-19T03:43:09.070Z,-0.07
2018-02-19T03:45:39.095Z,-0.07
2018-02-19T03:48:08.709Z,0.07
2018-02-19T03:50:39.060Z,0.10
2018-02-19T03:53:09.512Z,0.07
2018-02-19T03:55:39.546Z,0.12
2018-02-19T03:58:09.823Z,0.09
2018-02-19T04:00:40.017Z,0.00
2018-02-19T04:03:09.863Z,0.00
2018-02-19T04:05:40.215Z,0.01
2018-02-19T04:08:08.568Z,0.01
2018-02-19T04:10:37.779Z,0.06
2018-02-19T04:13:06.720Z,0.13
2018-02-19T04:15:35.006Z,0.05
2018-02-19T04:18:05.239Z,0.02
2018-02-19T04:20:33.660Z,0.07
2018-02-19T04:23:04.849Z,0.11
2018-02-19T04:25:33.619Z,0.08
2018-02-19T04:28:05.339Z,0.15
2018-02-19T04:30:33.617Z,0.16
2018-02-19T04:33:05.657Z,0.00
2018-02-19T04:35:34.066Z,0.07
2018-02-19T04:38:05.431Z,0.01
2018-02-19T04:40:33.711Z,-0.13
2018-02-19T04:43:15.762Z,-0.12
2018-02-19T04:45:49.781Z,0.10
2018-02-19T04:48:18.178Z,0.08
2018-02-19T04:50:46.473Z,0.19
2018-02-19T04:53:15.104Z,0.12
2018-02-19T04:55:43.614Z,0.18
2018-02-19T04:58:11.928Z,0.23
2018-02-19T05:00:40.461Z,0.10
2018-02-19T05:03:08.940Z,0.15
2018-02-19T05:05:37.251Z,0.06
2018-02-19T05:08:05.833Z,0.03
2018-02-19T05:10:34.749Z,0.00
2018-02-19T05:13:04.863Z,0.06
2018-02-19T05:15:33.176Z,-0.12
2018-02-19T05:18:04.146Z,-0.02
2018-02-19T05:20:32.480Z,-0.15
2018-02-19T05:23:05.553Z,-0.24
2018-02-19T05:25:33.906Z,-0.14
2018-02-19T05:28:05.429Z,-0.21
2018-02-19T05:30:33.791Z,-0.28
2018-02-19T05:33:05.745Z,-0.27
2018-02-19T05:35:34.050Z,-0.23
2018-02-19T05:38:05.770Z,-0.12
2018-02-19T05:40:34.085Z,-0.12
2018-02-19T05:43:06.250Z,-0.02
2018-02-19T05:45:34.745Z,-0.06
2018-02-19T05:48:04.606Z,-0.19
2018-02-19T05:50:32.889Z,-0.14
2018-02-19T05:53:05.096Z,-0.12
2018-02-19T05:55:33.363Z,-0.14
2018-02-19T05:58:04.261Z,-0.08
2018-02-19T06:00:32.572Z,0.09
2018-02-19T06:03:06.705Z,0.09
2018-02-19T06:05:34.994Z,0.09
2018-02-19T06:08:04.753Z,0.11
2018-02-19T06:10:33.042Z,0.29
2018-02-19T06:13:04.249Z,0.38
2018-02-19T06:15:32.572Z,0.39
2018-02-19T06:18:04.365Z,0.44
2018-02-19T06:20:32.791Z,0.39
2018-02-19T06:23:04.901Z,0.41
2018-02-19T06:25:33.210Z,0.43
2018-02-19T06:28:05.134Z,0.45
2018-02-19T06:30:34.091Z,0.53
2018-02-19T06:33:05.915Z,0.59
2018-02-19T06:35:38.100Z,0.61
2018-02-19T06:38:06.409Z,0.67
2018-02-19T06:40:34.969Z,0.71
2018-02-19T06:43:04.976Z,0.72
2018-02-19T06:45:33.252Z,0.71
2018-02-19T06:48:04.484Z,0.69
2018-02-19T06:50:32.865Z,0.60
2018-02-19T06:53:04.986Z,0.59
2018-02-19T06:55:33.270Z,0.54
2018-02-19T06:58:04.872Z,0.56
2018-02-19T07:00:33.545Z,0.46
2018-02-19T07:03:05.419Z,0.64
2018-02-19T07:05:33.902Z,0.69
2018-02-19T07:08:04.189Z,0.75
2018-02-19T07:10:32.491Z,0.81
2018-02-19T07:13:03.940Z,0.75
2018-02-19T07:15:32.342Z,0.86
2018-02-19T07:18:03.641Z,0.88
2018-02-19T07:20:32.063Z,0.85
2018-02-19T07:23:05.677Z,0.88
2018-02-19T07:25:33.964Z,0.93
2018-02-19T07:28:05.791Z,0.92
2018-02-19T07:30:34.099Z,0.83
2018-02-19T07:33:05.616Z,1.26
2018-02-19T07:35:34.433Z,1.28
2018-02-19T07:38:04.501Z,1.17
2018-02-19T07:40:32.777Z,1.11
2018-02-19T07:43:04.800Z,1.14
2018-02-19T07:45:33.284Z,1.31
2018-02-19T07:48:05.400Z,1.31
2018-02-19T07:50:33.677Z,1.28
2018-02-19T07:53:05.429Z,1.43
2018-02-19T07:55:33.956Z,1.49
2018-02-19T07:58:06.070Z,1.60
2018-02-19T08:00:34.641Z,1.69
2018-02-19T08:03:04.308Z,1.53
2018-02-19T08:05:32.588Z,1.67
2018-02-19T08:08:07.650Z,1.88
2018-02-19T08:10:35.946Z,2.12
2018-02-19T08:13:04.300Z,2.10
2018-02-19T08:15:32.579Z,1.93
2018-02-19T08:18:04.050Z,2.15
2018-02-19T08:20:32.337Z,2.33
2018-02-19T08:23:03.886Z,2.41
2018-02-19T08:25:32.200Z,2.33
2018-02-19T08:28:07.118Z,2.46
2018-02-19T08:30:35.526Z,2.76
2018-02-19T08:33:04.927Z,2.83
2018-02-19T08:35:33.226Z,3.09
2018-02-19T08:38:05.213Z,3.09
2018-02-19T08:40:33.515Z,3.05
2018-02-19T08:43:04.945Z,2.88
2018-02-19T08:45:33.251Z,3.19
2018-02-19T08:48:04.362Z,2.82
2018-02-19T08:50:32.661Z,2.89
2018-02-19T08:53:04.037Z,2.91
2018-02-19T08:55:32.566Z,3.12
2018-02-19T08:58:04.290Z,3.06
2018-02-19T09:00:33.118Z,3.42
2018-02-19T09:03:04.247Z,3.20
2018-02-19T09:05:32.825Z,2.83
2018-02-19T09:08:07.900Z,2.69
2018-02-19T09:10:36.294Z,2.65
2018-02-19T09:13:04.603Z,2.67
2018-02-19T09:15:33.147Z,2.86
2018-02-19T09:18:04.798Z,2.79
2018-02-19T09:20:33.086Z,2.81
2018-02-19T09:23:05.417Z,2.78
2018-02-19T09:25:33.710Z,2.72
2018-02-19T09:28:05.420Z,3.04
2018-02-19T09:30:33.725Z,3.26
2018-02-19T09:33:05.041Z,3.96
2018-02-19T09:35:33.591Z,3.49
2018-02-19T09:38:05.510Z,3.16
2018-02-19T09:40:33.784Z,3.46
2018-02-19T09:43:05.056Z,3.27
2018-02-19T09:45:33.996Z,3.30
2018-02-19T09:48:05.673Z,3.16
2018-02-19T09:50:33.961Z,3.13
2018-02-19T09:55:32.936Z,3.15
2018-02-19T09:58:04.365Z,3.29
2018-02-19T10:00:32.692Z,3.63
2018-02-19T10:03:07.769Z,3.89
2018-02-19T10:05:36.090Z,3.40
2018-02-19T10:08:04.359Z,3.36
2018-02-19T10:10:33.008Z,3.85
2018-02-19T10:13:04.294Z,3.68
2018-02-19T10:15:32.634Z,4.24
2018-02-19T10:18:08.179Z,4.43
2018-02-19T10:20:36.778Z,4.36
2018-02-19T10:23:05.089Z,3.86
2018-02-19T10:25:34.231Z,3.75
2018-02-19T10:28:05.467Z,4.15
2018-02-19T10:30:33.766Z,4.52
2018-02-19T10:33:05.013Z,4.21
2018-02-19T10:35:33.906Z,4.05
2018-02-19T10:38:03.722Z,4.03
2018-02-19T10:40:32.034Z,3.92
2018-02-19T10:43:04.208Z,3.99
2018-02-19T10:45:36.496Z,4.50
2018-02-19T10:48:04.780Z,5.27
2018-02-19T10:50:33.080Z,5.39
2018-02-19T10:53:04.401Z,6.02
2018-02-19T10:55:32.984Z,7.28
2018-02-19T10:58:05.347Z,6.16
2018-02-19T11:00:39.073Z,6.00
2018-02-19T11:03:07.387Z,7.12
2018-02-19T11:05:36.190Z,7.69
2018-02-19T11:08:04.804Z,8.57
2018-02-19T11:10:33.053Z,6.36
2018-02-19T11:13:05.265Z,6.42
2018-02-19T11:15:33.561Z,6.24
2018-02-19T11:18:03.591Z,5.52
2018-02-19T11:20:32.046Z,6.35
2018-02-19T11:23:03.274Z,7.47
2018-02-19T11:25:31.563Z,8.03
2018-02-19T11:28:07.109Z,7.24
2018-02-19T11:30:35.407Z,6.92
2018-02-19T11:33:03.709Z,6.06
2018-02-19T11:35:32.332Z,8.11
2018-02-19T11:38:04.612Z,8.12
2018-02-19T11:40:33.105Z,7.69
2018-02-19T11:43:04.757Z,7.04
2018-02-19T11:45:33.058Z,8.67
2018-02-19T11:48:04.685Z,8.91
2018-02-19T11:50:32.992Z,10.43
2018-02-19T11:53:04.836Z,9.55
2018-02-19T11:55:33.129Z,10.18
2018-02-19T11:58:05.299Z,10.69
2018-02-19T12:00:33.950Z,8.48
2018-02-19T12:03:03.969Z,7.11
2018-02-19T12:05:33.038Z,9.33
2018-02-19T12:08:04.793Z,6.56
2018-02-19T12:10:33.582Z,6.12
2018-02-19T12:13:04.016Z,6.46
2018-02-19T12:15:32.595Z,7.53
2018-02-19T12:18:04.314Z,6.94
2018-02-19T12:20:33.114Z,7.77
2018-02-19T12:23:04.878Z,7.50
2018-02-19T12:25:33.170Z,8.31
2018-02-19T12:28:05.133Z,6.74
2018-02-19T12:30:33.410Z,8.56
2018-02-19T12:33:03.348Z,6.79
2018-02-19T12:35:31.638Z,6.82
2018-02-19T12:38:06.884Z,7.27
2018-02-19T12:40:35.136Z,9.29
2018-02-19T12:43:03.435Z,10.65
2018-02-19T12:45:31.737Z,11.12
2018-02-19T12:48:06.776Z,8.51
2018-02-19T12:50:35.249Z,8.93
2018-02-19T12:53:03.828Z,10.12
2018-02-19T12:55:32.258Z,9.08
2018-02-19T12:58:04.177Z,9.71
2018-02-19T13:00:32.494Z,10.17
2018-02-19T13:03:04.518Z,10.06
2018-02-19T13:05:32.822Z,10.75
2018-02-19T13:08:04.447Z,8.55
2018-02-19T13:10:32.734Z,7.97
2018-02-19T13:13:03.591Z,8.01
2018-02-19T13:15:31.940Z,8.12
2018-02-19T13:18:05.883Z,10.42
2018-02-19T13:20:34.185Z,10.43
2018-02-19T13:23:03.842Z,11.21
2018-02-19T13:25:32.653Z,11.38
2018-02-19T13:28:04.174Z,10.55
2018-02-19T13:30:32.487Z,10.99
2018-02-19T13:33:04.526Z,10.63
2018-02-19T13:35:32.841Z,8.57
2018-02-19T13:38:04.798Z,8.08
2018-02-19T13:40:33.233Z,8.30
2018-02-19T13:43:03.383Z,10.65
2018-02-19T13:45:31.736Z,11.27
2018-02-19T13:48:06.765Z,8.66
2018-02-19T13:50:35.054Z,8.01
2018-02-19T13:53:03.352Z,8.85
2018-02-19T13:55:32.876Z,9.30
2018-02-19T13:58:05.055Z,9.19
2018-02-19T14:00:33.784Z,8.40
2018-02-19T14:03:03.691Z,8.92
2018-02-19T14:05:31.996Z,8.76
2018-02-19T14:08:04.015Z,6.86
2018-02-19T14:10:32.466Z,6.43
2018-02-19T14:13:04.576Z,7.23
2018-02-19T14:15:33.141Z,6.65
2018-02-19T14:18:05.394Z,7.25
2018-02-19T14:20:33.738Z,7.16
2018-02-19T14:23:04.349Z,6.62
2018-02-19T14:25:32.678Z,6.90
2018-02-19T14:28:04.518Z,7.15
2018-02-19T14:30:32.880Z,7.17
2018-02-19T14:33:04.921Z,7.33
2018-02-19T14:35:33.220Z,7.17
2018-02-19T14:38:04.805Z,7.06
2018-02-19T14:40:33.088Z,6.64
2018-02-19T14:43:05.121Z,6.49
2018-02-19T14:45:33.447Z,6.20
2018-02-19T14:48:03.461Z,6.50
2018-02-19T14:50:31.775Z,6.01
2018-02-19T14:53:06.034Z,6.02
2018-02-19T14:55:34.346Z,6.42
2018-02-19T14:58:03.957Z,6.43
2018-02-19T15:00:32.301Z,6.69
2018-02-19T15:03:03.538Z,6.90
2018-02-19T15:05:31.819Z,6.71
2018-02-19T15:08:06.893Z,6.76
2018-02-19T15:10:35.411Z,6.60
2018-02-19T15:13:07.706Z,6.06
2018-02-19T15:15:36.202Z,6.55
2018-02-19T15:18:04.729Z,6.19
2018-02-19T15:20:33.295Z,6.18
2018-02-19T15:23:03.505Z,6.16
2018-02-19T15:25:31.785Z,6.04
2018-02-19T15:28:07.101Z,6.31
2018-02-19T15:30:35.416Z,6.17
2018-02-19T15:33:04.250Z,6.36
2018-02-19T15:35:32.556Z,6.09
2018-02-19T15:38:04.212Z,6.23
2018-02-19T15:40:32.501Z,6.08
2018-02-19T15:43:04.801Z,6.07
2018-02-19T15:45:33.081Z,6.08
2018-02-19T15:48:05.211Z,6.31
2018-02-19T15:50:33.508Z,5.77
2018-02-19T15:53:04.036Z,6.07
2018-02-19T15:55:32.288Z,6.07
2018-02-19T15:58:03.909Z,6.00
2018-02-19T16:00:32.249Z,5.82
2018-02-19T16:03:03.713Z,6.08
2018-02-19T16:05:32.010Z,5.96
2018-02-19T16:08:04.143Z,5.63
2018-02-19T16:10:32.419Z,5.89
2018-02-19T16:13:04.466Z,6.01
2018-02-19T16:15:32.758Z,6.03
2018-02-19T16:18:04.757Z,5.95
2018-02-19T16:20:33.084Z,5.87
2018-02-19T16:23:05.405Z,5.75
2018-02-19T16:25:33.696Z,5.91
2018-02-19T16:28:04.381Z,5.79
2018-02-19T16:30:32.967Z,5.88
2018-02-19T16:33:05.028Z,5.78
2018-02-19T16:35:33.363Z,5.78
2018-02-19T16:38:03.354Z,5.75
2018-02-19T16:40:31.652Z,5.78
2018-02-19T16:43:03.150Z,5.37
2018-02-19T16:45:31.443Z,5.62
2018-02-19T16:48:06.531Z,5.68
2018-02-19T16:50:34.857Z,5.41
2018-02-19T16:53:03.497Z,5.56
2018-02-19T16:55:31.890Z,5.41
2018-02-19T16:58:04.885Z,5.52
2018-02-19T17:00:33.177Z,5.56
2018-02-19T17:03:04.994Z,5.54
2018-02-19T17:05:33.309Z,5.52
2018-02-19T17:08:04.886Z,5.50
2018-02-19T17:10:33.141Z,5.58
2018-02-19T17:13:05.200Z,5.21
2018-02-19T17:15:33.494Z,5.06
2018-02-19T17:18:05.733Z,5.32
2018-02-19T17:20:34.043Z,5.43
2018-02-19T17:23:03.464Z,5.51
2018-02-19T17:25:31.744Z,5.45
2018-02-19T17:28:03.831Z,5.48
2018-02-19T17:30:32.142Z,5.46
2018-02-19T17:33:04.084Z,5.49
2018-02-19T17:35:32.640Z,5.51
2018-02-19T17:38:04.914Z,5.37
2018-02-19T17:40:33.181Z,5.19
2018-02-19T17:43:04.408Z,4.89
2018-02-19T17:45:33.152Z,5.16
2018-02-19T17:48:05.270Z,5.22
2018-02-19T17:50:33.592Z,5.17
2018-02-19T17:53:04.967Z,5.27
2018-02-19T17:55:33.275Z,5.23
2018-02-19T17:58:05.234Z,5.24
2018-02-19T18:00:33.533Z,5.25
2018-02-19T18:03:03.551Z,5.24
2018-02-19T18:05:31.858Z,5.34
2018-02-19T18:08:03.862Z,5.38
2018-02-19T18:10:32.172Z,5.15
2018-02-19T18:13:03.410Z,5.19
2018-02-19T18:15:31.725Z,5.21
2018-02-19T18:18:03.824Z,5.24
2018-02-19T18:20:32.147Z,5.21
2018-02-19T18:23:03.563Z,5.04
2018-02-19T18:25:31.865Z,5.19
2018-02-19T18:28:06.968Z,5.20
2018-02-19T18:30:35.304Z,5.19
2018-02-19T18:33:04.978Z,4.99
2018-02-19T18:35:33.267Z,4.99
2018-02-19T18:38:03.431Z,4.93
2018-02-19T18:40:31.730Z,5.00
2018-02-19T18:43:04.339Z,5.03
2018-02-19T18:45:32.741Z,5.01
2018-02-19T18:48:04.405Z,5.00
2018-02-19T18:50:33.289Z,5.00
2018-02-19T18:53:05.472Z,4.89
2018-02-19T18:55:33.766Z,4.85
2018-02-19T18:58:03.608Z,4.80
2018-02-19T19:00:31.875Z,4.86
2018-02-19T19:03:06.845Z,4.76
2018-02-19T19:05:35.148Z,4.80
2018-02-19T19:08:15.291Z,4.90
2018-02-19T19:10:51.742Z,4.99
2018-02-19T19:13:20.042Z,5.07
2018-02-19T19:15:48.321Z,5.09
2018-02-19T19:18:16.736Z,5.12
2018-02-19T19:20:45.038Z,4.99
2018-02-19T19:23:13.321Z,4.79
2018-02-19T19:25:41.636Z,4.76
2018-02-19T19:28:10.124Z,4.67
2018-02-19T19:30:38.425Z,4.57
2018-02-19T19:33:06.737Z,4.47
2018-02-19T19:35:35.105Z,4.42
2018-02-19T19:38:03.563Z,4.45
2018-02-19T19:40:31.854Z,4.42
2018-02-19T19:43:07.168Z,4.41
2018-02-19T19:45:35.488Z,4.49
2018-02-19T19:48:04.042Z,4.49
2018-02-19T19:50:32.342Z,4.42
2018-02-19T19:53:04.123Z,4.51
2018-02-19T19:55:32.498Z,4.63
2018-02-19T19:58:04.454Z,4.72
2018-02-19T20:00:32.783Z,4.60
2018-02-19T20:03:03.446Z,4.57
2018-02-19T20:05:31.777Z,4.44
2018-02-19T20:08:06.821Z,4.49
2018-02-19T20:10:35.135Z,4.33
2018-02-19T20:13:03.657Z,4.46
2018-02-19T20:15:32.118Z,4.53
2018-02-19T20:18:03.460Z,4.55
2018-02-19T20:20:32.003Z,4.52
2018-02-19T20:23:06.101Z,4.18
2018-02-19T20:25:34.569Z,4.33
2018-02-19T20:28:03.897Z,4.51
2018-02-19T20:30:32.217Z,4.44
2018-02-19T20:33:03.686Z,4.35
2018-02-19T20:35:31.968Z,4.52
2018-02-19T20:38:04.190Z,4.44
2018-02-19T20:40:32.647Z,4.17
2018-02-19T20:43:04.791Z,4.27
2018-02-19T20:45:33.076Z,4.25
2018-02-19T20:48:04.494Z,4.18
2018-02-19T20:50:32.797Z,4.33
2018-02-19T20:53:03.523Z,4.18
2018-02-19T20:55:31.818Z,4.13
2018-02-19T20:58:07.646Z,4.37
2018-02-19T21:00:35.959Z,4.18
2018-02-19T21:03:04.254Z,4.26
2018-02-19T21:05:32.560Z,4.22
2018-02-19T21:08:05.062Z,4.12
2018-02-19T21:10:33.385Z,4.33
2018-02-19T21:13:05.091Z,4.22
2018-02-19T21:15:33.416Z,4.11
2018-02-19T21:18:03.519Z,4.09
2018-02-19T21:20:31.921Z,4.00
2018-02-19T21:23:03.364Z,4.17
2018-02-19T21:25:31.733Z,4.24
2018-02-19T21:28:05.172Z,4.31
2018-02-19T21:30:33.486Z,4.27
2018-02-19T21:33:03.388Z,4.23
2018-02-19T21:35:31.942Z,4.17
2018-02-19T21:38:03.286Z,4.13
2018-02-19T21:40:32.011Z,4.02
2018-02-19T21:43:03.841Z,3.99
2018-02-19T21:45:33.073Z,3.86
2018-02-19T21:48:04.565Z,3.67
2018-02-19T21:50:32.870Z,3.67
2018-02-19T21:53:05.030Z,3.58
2018-02-19T21:55:33.298Z,3.55
2018-02-19T21:58:04.669Z,3.49
2018-02-19T22:00:32.986Z,3.38
2018-02-19T22:03:05.118Z,3.30
2018-02-19T22:05:33.412Z,3.25
2018-02-19T22:08:04.821Z,3.24
2018-02-19T22:10:33.104Z,3.16
2018-02-19T22:13:04.376Z,3.13
2018-02-19T22:15:32.697Z,2.97
2018-02-19T22:18:03.873Z,2.97
2018-02-19T22:20:32.446Z,3.04
2018-02-19T22:23:03.698Z,2.87
2018-02-19T22:25:32.144Z,2.86
2018-02-19T22:28:03.667Z,2.84
2018-02-19T22:30:32.389Z,2.79
2018-02-19T22:33:04.084Z,2.79
2018-02-19T22:35:32.445Z,2.80
2018-02-19T22:38:04.570Z,2.98
2018-02-19T22:40:32.871Z,3.05
2018-02-19T22:43:04.414Z,3.00
2018-02-19T22:45:32.756Z,2.85
2018-02-19T22:48:04.747Z,2.76
2018-02-19T22:50:33.041Z,2.69
2018-02-19T22:53:04.696Z,2.65
2018-02-19T22:55:33.285Z,2.56
2018-02-19T22:58:05.261Z,2.54
2018-02-19T23:00:33.572Z,2.58
2018-02-19T23:03:05.610Z,2.43
2018-02-19T23:05:33.945Z,2.41
2018-02-19T23:08:05.412Z,2.35
2018-02-19T23:10:33.690Z,2.28
2018-02-19T23:13:05.747Z,2.24
2018-02-19T23:15:34.189Z,2.31
2018-02-19T23:18:04.232Z,2.50
2018-02-19T23:20:32.529Z,2.61
2018-02-19T23:23:03.753Z,2.56
2018-02-19T23:25:34.566Z,2.64
2018-02-19T23:28:05.671Z,2.76
2018-02-19T23:30:38.808Z,2.56
2018-02-19T23:33:08.945Z,2.35
2018-02-19T23:35:38.506Z,2.15
2018-02-19T23:38:11.597Z,2.17
2018-02-19T23:40:40.947Z,1.93
2018-02-19T23:43:10.029Z,1.78
2018-02-19T23:45:39.943Z,1.55
2018-02-19T23:48:10.943Z,1.49
2018-02-19T23:50:40.752Z,1.42
2018-02-19T23:53:09.517Z,1.43
2018-02-19T23:55:38.651Z,1.54
2018-02-19T23:58:08.849Z,1.69
